createdAt,value
2023-04-04T00:01:54.982Z,2.27
2023-04-04T00:03:59.965Z,2.29
2023-04-04T00:06:04.827Z,2.32
2023-04-04T00:08:14.825Z,2.31
2023-04-04T00:10:21.192Z,2.29
2023-04-04T00:12:28.554Z,2.25
2023-04-04T00:14:35.042Z,2.23
2023-04-04T00:16:48.084Z,2.25
2023-04-04T00:18:52.789Z,2.24
2023-04-04T00:20:58.949Z,2.30
2023-04-04T00:23:09.618Z,2.30
2023-04-04T00:25:17.268Z,2.30
2023-04-04T00:27:22.268Z,2.27
2023-04-04T00:29:27.836Z,2.34
2023-04-04T00:31:33.757Z,2.25
2023-04-04T00:33:42.454Z,2.26
2023-04-04T00:35:50.939Z,2.25
2023-04-04T00:37:55.754Z,2.20
2023-04-04T00:40:01.065Z,2.14
2023-04-04T00:42:11.317Z,2.10
2023-04-04T00:44:16.124Z,2.08
2023-04-04T00:46:20.950Z,2.05
2023-04-04T00:48:26.634Z,2.05
2023-04-04T00:50:32.338Z,2.02
2023-04-04T00:52:37.720Z,1.97
2023-04-04T00:54:52.694Z,1.93
2023-04-04T00:56:58.476Z,1.96
2023-04-04T00:59:09.891Z,1.93
2023-04-04T01:01:15.105Z,1.94
2023-04-04T01:03:21.331Z,1.92
2023-04-04T01:05:27.262Z,1.93
2023-04-04T01:07:32.660Z,1.90
2023-04-04T01:09:38.059Z,1.89
2023-04-04T01:11:45.094Z,1.88
2023-04-04T01:13:51.982Z,1.88
2023-04-04T01:15:59.390Z,1.88
2023-04-04T01:18:08.602Z,1.90
2023-04-04T01:20:17.006Z,1.86
2023-04-04T01:22:24.557Z,1.86
2023-04-04T01:24:38.138Z,1.83
2023-04-04T01:26:46.994Z,1.82
2023-04-04T01:28:51.848Z,1.85
2023-04-04T01:30:57.253Z,1.85
2023-04-04T01:33:05.114Z,1.82
2023-04-04T01:35:23.041Z,1.77
2023-04-04T01:37:37.731Z,1.77
2023-04-04T01:39:48.423Z,1.69
2023-04-04T01:41:58.176Z,1.68
2023-04-04T01:44:03.301Z,1.62
2023-04-04T01:46:13.163Z,1.59
2023-04-04T01:48:19.904Z,1.51
2023-04-04T01:50:27.360Z,1.46
2023-04-04T01:52:32.170Z,1.44
2023-04-04T01:54:39.081Z,1.38
2023-04-04T01:56:43.943Z,1.35
2023-04-04T01:58:52.454Z,1.24
2023-04-04T02:00:59.730Z,1.18
2023-04-04T02:03:05.782Z,1.10
2023-04-04T02:05:14.146Z,1.06
2023-04-04T02:07:19.636Z,1.07
2023-04-04T02:09:26.521Z,1.04
2023-04-04T02:11:33.751Z,1.02
2023-04-04T02:13:45.027Z,0.98
2023-04-04T02:15:53.722Z,0.90
2023-04-04T02:18:00.574Z,0.86
2023-04-04T02:20:10.535Z,0.84
2023-04-04T02:22:15.504Z,0.82
2023-04-04T02:24:20.384Z,0.82
2023-04-04T02:26:25.302Z,0.81
2023-04-04T02:28:31.991Z,0.79
2023-04-04T02:30:39.893Z,0.76
2023-04-04T02:32:47.497Z,0.71
2023-04-04T02:34:52.533Z,0.71
2023-04-04T02:36:59.563Z,0.68
2023-04-04T02:39:08.065Z,0.65
2023-04-04T02:41:13.011Z,0.63
2023-04-04T02:43:17.835Z,0.61
2023-04-04T02:45:26.957Z,0.62
2023-04-04T02:47:31.705Z,0.68
2023-04-04T02:49:46.127Z,0.61
2023-04-04T02:51:55.133Z,0.57
2023-04-04T02:54:09.026Z,0.53
2023-04-04T02:56:16.207Z,0.47
2023-04-04T02:58:24.241Z,0.40
2023-04-04T03:00:35.607Z,0.33
2023-04-04T03:02:43.989Z,0.31
2023-04-04T03:04:59.507Z,0.27
2023-04-04T03:07:09.998Z,0.17
2023-04-04T03:09:20.021Z,0.08
2023-04-04T03:11:27.360Z,0.06
2023-04-04T03:13:35.566Z,0.04
2023-04-04T03:15:47.437Z,0.02
2023-04-04T03:17:52.663Z,-0.02
2023-04-04T03:20:03.280Z,-0.03
2023-04-04T03:22:15.410Z,-0.08
2023-04-04T03:24:21.612Z,-0.08
2023-04-04T03:26:31.197Z,-0.08
2023-04-04T03:28:37.223Z,-0.12
2023-04-04T03:30:46.795Z,-0.14
2023-04-04T03:32:54.273Z,-0.16
2023-04-04T03:35:10.358Z,-0.23
2023-04-04T03:37:15.309Z,-0.27
2023-04-04T03:39:20.189Z,-0.30
2023-04-04T03:41:25.344Z,-0.31
2023-04-04T03:43:30.091Z,-0.33
2023-04-04T03:45:39.394Z,-0.33
2023-04-04T03:47:46.657Z,-0.34
2023-04-04T03:49:53.771Z,-0.41
2023-04-04T03:52:02.756Z,-0.38
2023-04-04T03:54:08.041Z,-0.40
2023-04-04T03:56:13.043Z,-0.41
2023-04-04T03:58:17.884Z,-0.42
2023-04-04T04:00:22.801Z,-0.50
2023-04-04T04:02:28.228Z,-0.50
2023-04-04T04:04:33.032Z,-0.49
2023-04-04T04:06:38.160Z,-0.51
2023-04-04T04:08:45.460Z,-0.54
2023-04-04T04:10:50.319Z,-0.63
2023-04-04T04:12:56.192Z,-0.68
2023-04-04T04:15:01.251Z,-0.71
2023-04-04T04:17:10.217Z,-0.74
2023-04-04T04:19:16.192Z,-0.79
2023-04-04T04:21:20.892Z,-0.81
2023-04-04T04:23:28.439Z,-0.84
2023-04-04T04:25:36.271Z,-0.83
2023-04-04T04:27:42.589Z,-0.85
2023-04-04T04:29:47.501Z,-0.90
2023-04-04T04:31:53.127Z,-0.90
2023-04-04T04:33:58.181Z,-0.89
2023-04-04T04:36:04.082Z,-0.90
2023-04-04T04:38:09.602Z,-0.99
2023-04-04T04:40:16.972Z,-1.02
2023-04-04T04:42:24.422Z,-1.02
2023-04-04T04:44:29.176Z,-1.06
2023-04-04T04:46:35.763Z,-1.06
2023-04-04T04:48:40.719Z,-1.09
2023-04-04T04:50:52.867Z,-1.06
2023-04-04T04:53:06.094Z,-1.07
2023-04-04T04:55:14.350Z,-1.04
2023-04-04T04:57:24.717Z,-1.12
2023-04-04T04:59:29.802Z,-1.13
2023-04-04T05:01:34.902Z,-1.17
2023-04-04T05:03:41.958Z,-1.19
2023-04-04T05:05:47.750Z,-1.18
2023-04-04T05:07:52.582Z,-1.14
2023-04-04T05:09:57.315Z,-1.14
2023-04-04T05:12:02.179Z,-1.12
2023-04-04T05:14:09.779Z,-1.09
2023-04-04T05:16:14.625Z,-1.12
2023-04-04T05:18:22.787Z,-1.20
2023-04-04T05:20:28.344Z,-1.22
2023-04-04T05:22:33.125Z,-1.17
2023-04-04T05:24:37.961Z,-1.21
2023-04-04T05:26:44.057Z,-1.19
2023-04-04T05:28:54.781Z,-1.18
2023-04-04T05:31:03.831Z,-1.20
2023-04-04T05:33:09.299Z,-1.17
2023-04-04T05:35:21.684Z,-1.14
2023-04-04T05:37:28.959Z,-1.18
2023-04-04T05:39:33.756Z,-1.16
2023-04-04T05:41:41.387Z,-1.13
2023-04-04T05:43:49.389Z,-1.07
2023-04-04T05:45:54.266Z,-1.04
2023-04-04T05:48:04.479Z,-0.99
2023-04-04T05:50:10.678Z,-0.88
2023-04-04T05:52:16.549Z,-0.67
2023-04-04T05:54:21.249Z,-0.50
2023-04-04T05:56:27.097Z,-0.33
2023-04-04T05:58:31.870Z,-0.19
2023-04-04T06:00:38.653Z,-0.01
2023-04-04T06:02:51.380Z,0.15
2023-04-04T06:04:59.244Z,0.35
2023-04-04T06:07:04.235Z,0.59
2023-04-04T06:09:10.807Z,0.79
2023-04-04T06:11:16.055Z,0.97
2023-04-04T06:13:20.899Z,1.14
2023-04-04T06:15:25.947Z,1.34
2023-04-04T06:17:31.369Z,1.59
2023-04-04T06:19:36.774Z,1.74
2023-04-04T06:21:46.502Z,1.94
2023-04-04T06:23:51.837Z,2.15
2023-04-04T06:25:59.961Z,2.34
2023-04-04T06:28:04.832Z,2.55
2023-04-04T06:30:12.112Z,2.69
2023-04-04T06:32:16.884Z,2.91
2023-04-04T06:34:24.049Z,3.03
2023-04-04T06:36:28.844Z,3.26
2023-04-04T06:38:36.974Z,3.37
2023-04-04T06:40:43.234Z,3.45
2023-04-04T06:42:52.418Z,3.65
2023-04-04T06:44:57.213Z,3.72
2023-04-04T06:47:02.166Z,3.86
2023-04-04T06:49:08.620Z,4.02
2023-04-04T06:51:14.316Z,4.11
2023-04-04T06:53:20.391Z,4.23
2023-04-04T06:55:29.336Z,4.34
2023-04-04T06:57:34.331Z,4.61
2023-04-04T06:59:39.193Z,4.59
2023-04-04T07:01:43.955Z,4.76
2023-04-04T07:03:49.446Z,4.95
2023-04-04T07:05:54.259Z,5.06
2023-04-04T07:07:59.138Z,5.24
2023-04-04T07:10:04.109Z,5.47
2023-04-04T07:12:15.620Z,5.59
2023-04-04T07:14:25.920Z,5.77
2023-04-04T07:16:34.142Z,5.97
2023-04-04T07:18:39.193Z,6.06
2023-04-04T07:20:44.069Z,6.19
2023-04-04T07:22:49.233Z,6.41
2023-04-04T07:24:54.841Z,6.26
2023-04-04T07:26:59.895Z,6.27
2023-04-04T07:29:11.176Z,6.42
2023-04-04T07:31:16.262Z,6.67
2023-04-04T07:33:21.495Z,6.72
2023-04-04T07:35:26.806Z,6.87
2023-04-04T07:37:31.699Z,7.01
2023-04-04T07:39:37.084Z,6.85
2023-04-04T07:41:42.455Z,7.19
2023-04-04T07:43:47.365Z,7.04
2023-04-04T07:45:54.775Z,6.98
2023-04-04T07:48:02.716Z,7.32
2023-04-04T07:50:08.522Z,7.66
2023-04-04T07:52:14.929Z,7.39
2023-04-04T07:54:22.362Z,7.54
2023-04-04T07:56:29.204Z,7.64
2023-04-04T07:58:36.416Z,7.78
2023-04-04T08:00:41.332Z,7.95
2023-04-04T08:02:49.192Z,7.81
2023-04-04T08:04:54.030Z,8.10
2023-04-04T08:06:58.772Z,8.06
2023-04-04T08:09:03.841Z,8.24
2023-04-04T08:11:10.293Z,8.23
2023-04-04T08:13:14.989Z,8.38
2023-04-04T08:15:19.843Z,8.45
2023-04-04T08:17:25.000Z,8.48
2023-04-04T08:19:32.441Z,8.46
2023-04-04T08:21:39.915Z,8.77
2023-04-04T08:23:45.015Z,8.82
2023-04-04T08:25:50.029Z,8.66
2023-04-04T08:27:55.048Z,8.65
2023-04-04T08:29:59.783Z,8.40
2023-04-04T08:32:05.338Z,8.28
2023-04-04T08:34:10.735Z,8.40
2023-04-04T08:36:19.014Z,8.39
2023-04-04T08:38:23.947Z,8.40
2023-04-04T08:40:30.464Z,8.40
2023-04-04T08:42:36.970Z,8.26
2023-04-04T08:44:46.306Z,8.56
2023-04-04T08:46:52.992Z,8.88
2023-04-04T08:49:01.626Z,8.89
2023-04-04T08:51:09.239Z,8.83
2023-04-04T08:53:17.477Z,9.10
2023-04-04T08:55:23.041Z,9.04
2023-04-04T08:57:28.252Z,9.21
2023-04-04T08:59:33.223Z,8.97
2023-04-04T09:01:38.276Z,9.14
2023-04-04T09:03:44.625Z,9.32
2023-04-04T09:05:50.449Z,9.10
2023-04-04T09:07:56.623Z,8.91
2023-04-04T09:10:08.049Z,9.33
2023-04-04T09:12:15.529Z,9.73
2023-04-04T09:14:21.958Z,9.21
2023-04-04T09:16:27.974Z,9.43
2023-04-04T09:18:37.830Z,9.73
2023-04-04T09:20:44.266Z,9.56
2023-04-04T09:22:49.522Z,9.30
2023-04-04T09:24:54.711Z,9.48
2023-04-04T09:27:10.611Z,9.62
2023-04-04T09:29:15.668Z,9.73
2023-04-04T09:31:24.984Z,10.02
2023-04-04T09:33:30.531Z,9.31
2023-04-04T09:35:39.867Z,9.70
2023-04-04T09:37:46.416Z,9.77
2023-04-04T09:39:52.752Z,10.02
2023-04-04T09:41:58.037Z,9.92
2023-04-04T09:44:08.068Z,9.61
2023-04-04T09:46:18.580Z,10.10
2023-04-04T09:48:29.466Z,9.76
2023-04-04T09:50:34.228Z,9.73
2023-04-04T09:52:39.213Z,9.96
2023-04-04T09:54:48.358Z,10.31
2023-04-04T09:56:56.915Z,9.91
2023-04-04T09:59:06.914Z,10.04
2023-04-04T10:01:16.962Z,10.13
2023-04-04T10:03:28.170Z,9.92
2023-04-04T10:05:33.156Z,10.19
2023-04-04T10:07:42.692Z,10.13
2023-04-04T10:09:50.966Z,10.23
2023-04-04T10:12:12.545Z,10.10
2023-04-04T10:14:21.741Z,10.52
2023-04-04T10:16:28.121Z,10.28
2023-04-04T10:18:34.799Z,10.08
2023-04-04T10:20:42.891Z,10.37
2023-04-04T10:22:50.758Z,10.90
2023-04-04T10:24:59.518Z,10.75
2023-04-04T10:27:04.471Z,10.99
2023-04-04T10:29:09.378Z,10.81
2023-04-04T10:31:27.353Z,10.51
2023-04-04T10:33:42.886Z,10.23
2023-04-04T10:35:58.262Z,10.32
2023-04-04T10:38:14.140Z,10.63
2023-04-04T10:40:38.557Z,11.18
2023-04-04T10:42:54.518Z,10.96
2023-04-04T10:45:12.836Z,11.41
2023-04-04T10:47:27.143Z,11.41
2023-04-04T10:49:33.330Z,11.08
2023-04-04T10:51:48.790Z,11.01
2023-04-04T10:53:58.395Z,11.20
2023-04-04T10:56:06.354Z,11.43
2023-04-04T10:58:23.306Z,11.28
2023-04-04T11:00:28.319Z,11.36
2023-04-04T11:02:58.428Z,11.35
2023-04-04T11:05:17.951Z,10.98
2023-04-04T11:07:23.964Z,11.65
2023-04-04T11:09:56.402Z,11.65
2023-04-04T11:12:11.022Z,11.23
2023-04-04T11:14:16.085Z,11.29
2023-04-04T11:16:24.918Z,11.20
2023-04-04T11:18:53.208Z,11.04
2023-04-04T11:21:01.548Z,11.34
2023-04-04T11:23:13.902Z,11.50
2023-04-04T11:25:34.291Z,11.51
2023-04-04T11:27:41.242Z,11.42
2023-04-04T11:29:55.833Z,11.54
2023-04-04T11:32:01.629Z,11.25
2023-04-04T11:34:11.520Z,11.42
2023-04-04T11:36:27.965Z,11.57
2023-04-04T11:38:35.562Z,11.59
2023-04-04T11:40:47.665Z,11.69
2023-04-04T11:42:56.709Z,12.04
2023-04-04T11:45:11.922Z,11.92
2023-04-04T11:47:18.627Z,12.14
2023-04-04T11:49:29.946Z,12.39
2023-04-04T11:51:35.803Z,12.77
2023-04-04T11:53:43.048Z,12.62
2023-04-04T11:55:56.697Z,12.25
2023-04-04T11:58:13.885Z,12.30
2023-04-04T12:00:32.414Z,12.89
2023-04-04T12:02:39.857Z,12.02
2023-04-04T12:04:51.584Z,11.79
2023-04-04T12:06:58.196Z,11.11
2023-04-04T12:09:07.888Z,11.63
2023-04-04T12:11:12.822Z,11.73
2023-04-04T12:13:17.744Z,12.00
2023-04-04T12:15:27.611Z,11.94
2023-04-04T12:17:36.284Z,12.50
2023-04-04T12:19:48.657Z,12.66
2023-04-04T12:22:06.807Z,11.98
2023-04-04T12:24:43.031Z,12.00
2023-04-04T12:26:57.057Z,11.78
2023-04-04T12:30:05.549Z,12.00
2023-04-04T12:32:16.475Z,12.43
2023-04-04T12:37:12.080Z,11.95
2023-04-04T12:40:02.877Z,12.12
2023-04-04T12:42:17.718Z,12.02
2023-04-04T12:44:41.241Z,11.88
2023-04-04T12:46:48.054Z,12.08
2023-04-04T12:49:46.739Z,12.30
2023-04-04T12:55:43.945Z,12.51
2023-04-04T13:01:07.340Z,12.04
2023-04-04T13:03:20.016Z,12.43
2023-04-04T13:06:01.180Z,12.24
2023-04-04T13:08:25.806Z,12.10
2023-04-04T13:11:21.521Z,12.74
2023-04-04T13:20:45.838Z,11.89
2023-04-04T13:22:56.618Z,11.77
2023-04-04T13:25:12.321Z,12.22
2023-04-04T13:27:38.789Z,12.63
2023-04-04T13:29:46.600Z,13.05
2023-04-04T13:31:54.305Z,13.01
2023-04-04T13:34:13.520Z,12.52
2023-04-04T13:36:31.503Z,13.08
2023-04-04T13:38:37.684Z,12.77
2023-04-04T13:40:48.005Z,12.78
2023-04-04T13:43:03.022Z,12.91
2023-04-04T13:45:18.506Z,12.59
2023-04-04T13:47:25.394Z,13.07
2023-04-04T13:50:00.314Z,12.80
2023-04-04T13:52:05.010Z,13.13
2023-04-04T13:54:17.751Z,12.42
2023-04-04T13:56:23.566Z,12.60
2023-04-04T13:58:28.608Z,12.23
2023-04-04T14:00:39.349Z,12.05
2023-04-04T14:02:55.723Z,12.27
2023-04-04T14:05:01.869Z,12.20
2023-04-04T14:07:11.076Z,12.56
2023-04-04T14:09:17.776Z,12.73
2023-04-04T14:11:22.661Z,12.69
2023-04-04T14:13:28.709Z,12.92
2023-04-04T14:15:36.861Z,12.76
2023-04-04T14:17:43.567Z,13.03
2023-04-04T14:19:48.604Z,13.49
2023-04-04T14:21:53.412Z,13.27
2023-04-04T14:23:58.176Z,13.58
2023-04-04T14:26:04.662Z,13.70
2023-04-04T14:28:16.612Z,13.59
2023-04-04T14:32:29.907Z,13.25
2023-04-04T14:34:34.852Z,13.20
2023-04-04T14:36:40.028Z,13.05
2023-04-04T14:38:44.988Z,12.57
2023-04-04T14:40:50.936Z,12.80
2023-04-04T14:42:55.868Z,13.03
2023-04-04T14:45:02.600Z,12.82
2023-04-04T14:47:09.220Z,13.12
2023-04-04T14:49:16.621Z,13.25
2023-04-04T14:51:27.967Z,13.10
2023-04-04T14:53:33.113Z,12.68
2023-04-04T14:55:38.327Z,12.59
2023-04-04T14:58:01.232Z,12.59
2023-04-04T15:00:08.158Z,12.56
2023-04-04T15:02:12.975Z,12.53
2023-04-04T15:04:20.398Z,12.67
2023-04-04T15:06:25.414Z,12.48
2023-04-04T15:08:33.931Z,12.40
2023-04-04T15:10:39.613Z,12.49
2023-04-04T15:12:47.226Z,12.45
2023-04-04T15:14:52.094Z,12.47
2023-04-04T15:16:57.995Z,12.50
2023-04-04T15:19:03.405Z,12.55
2023-04-04T15:21:11.312Z,13.01
2023-04-04T15:23:18.345Z,13.18
2023-04-04T15:25:23.230Z,12.77
2023-04-04T15:27:28.562Z,12.88
2023-04-04T15:29:34.629Z,12.70
2023-04-04T15:31:48.394Z,12.81
2023-04-04T15:33:55.347Z,12.61
2023-04-04T15:36:00.864Z,12.51
2023-04-04T15:38:09.808Z,12.64
2023-04-04T15:40:16.374Z,12.90
2023-04-04T15:42:21.365Z,12.86
2023-04-04T15:44:26.861Z,12.82
2023-04-04T15:46:31.789Z,12.90
2023-04-04T15:48:39.737Z,13.22
2023-04-04T15:50:45.817Z,12.90
2023-04-04T15:52:54.908Z,12.74
2023-04-04T15:55:02.473Z,12.79
2023-04-04T15:57:09.120Z,12.89
2023-04-04T15:59:14.077Z,13.00
2023-04-04T16:01:22.051Z,12.56
2023-04-04T16:03:27.137Z,12.71
2023-04-04T16:05:31.914Z,12.73
2023-04-04T16:07:37.142Z,12.81
2023-04-04T16:09:44.937Z,12.52
2023-04-04T16:11:54.066Z,12.57
2023-04-04T16:14:01.024Z,13.06
2023-04-04T16:16:06.123Z,12.81
2023-04-04T16:18:14.025Z,13.23
2023-04-04T16:20:22.004Z,13.17
2023-04-04T16:22:26.817Z,12.74
2023-04-04T16:24:31.490Z,12.52
2023-04-04T16:26:39.238Z,12.47
2023-04-04T16:28:49.590Z,12.58
2023-04-04T16:30:54.399Z,12.41
2023-04-04T16:32:59.730Z,11.99
2023-04-04T16:35:04.531Z,11.86
2023-04-04T16:37:11.241Z,11.82
2023-04-04T16:39:17.233Z,11.36
2023-04-04T16:41:22.022Z,10.58
2023-04-04T16:43:27.220Z,10.01
2023-04-04T16:45:38.403Z,10.44
2023-04-04T16:47:46.002Z,10.95
2023-04-04T16:49:56.996Z,11.19
2023-04-04T16:52:02.144Z,11.23
2023-04-04T16:54:10.953Z,11.10
2023-04-04T16:56:16.301Z,11.05
2023-04-04T16:58:21.089Z,11.15
2023-04-04T17:00:29.287Z,10.84
2023-04-04T17:02:45.419Z,10.87
2023-04-04T17:04:51.406Z,10.85
2023-04-04T17:06:56.928Z,10.57
2023-04-04T17:09:02.580Z,10.35
2023-04-04T17:11:13.252Z,10.35
2023-04-04T17:13:19.217Z,10.21
2023-04-04T17:15:24.414Z,10.13
2023-04-04T17:17:29.303Z,9.82
2023-04-04T17:19:40.489Z,9.72
2023-04-04T17:21:45.217Z,9.68
2023-04-04T17:23:51.338Z,9.43
2023-04-04T17:25:56.718Z,9.56
2023-04-04T17:28:02.658Z,9.08
2023-04-04T17:30:08.974Z,9.12
2023-04-04T17:32:13.782Z,8.94
2023-04-04T17:34:21.478Z,8.67
2023-04-04T17:36:31.130Z,8.81
2023-04-04T17:38:36.728Z,8.82
2023-04-04T17:40:42.042Z,8.69
2023-04-04T17:42:47.145Z,8.71
2023-04-04T17:44:52.042Z,8.61
2023-04-04T17:46:56.803Z,8.53
2023-04-04T17:49:01.739Z,8.51
2023-04-04T17:51:09.639Z,8.57
2023-04-04T17:53:16.990Z,8.66
2023-04-04T17:55:22.432Z,8.45
2023-04-04T17:57:27.993Z,8.31
2023-04-04T17:59:32.940Z,8.22
2023-04-04T18:01:40.447Z,8.20
2023-04-04T18:03:45.693Z,8.02
2023-04-04T18:05:53.101Z,7.97
2023-04-04T18:07:58.431Z,7.98
2023-04-04T18:10:06.280Z,7.87
2023-04-04T18:12:15.241Z,7.71
2023-04-04T18:14:20.108Z,7.67
2023-04-04T18:16:28.542Z,7.62
2023-04-04T18:18:33.826Z,7.57
2023-04-04T18:20:38.912Z,7.59
2023-04-04T18:22:45.250Z,7.49
2023-04-04T18:24:50.090Z,7.42
2023-04-04T18:26:57.820Z,7.29
2023-04-04T18:29:03.381Z,7.21
2023-04-04T18:31:09.480Z,7.19
2023-04-04T18:33:14.262Z,7.15
2023-04-04T18:35:19.698Z,7.13
2023-04-04T18:37:26.809Z,7.04
2023-04-04T18:39:32.045Z,6.97
2023-04-04T18:41:37.082Z,6.91
2023-04-04T18:43:48.616Z,6.84
2023-04-04T18:45:54.838Z,6.86
2023-04-04T18:47:59.863Z,6.80
2023-04-04T18:50:05.075Z,6.79
2023-04-04T18:52:12.939Z,6.79
2023-04-04T18:54:17.887Z,6.76
2023-04-04T18:56:24.542Z,6.70
2023-04-04T18:58:33.068Z,6.66
2023-04-04T19:00:40.937Z,6.63
2023-04-04T19:02:49.233Z,6.62
2023-04-04T19:04:58.329Z,6.53
2023-04-04T19:07:07.463Z,6.53
2023-04-04T19:09:15.116Z,6.49
2023-04-04T19:11:24.589Z,6.53
2023-04-04T19:13:34.003Z,6.52
2023-04-04T19:15:47.473Z,6.49
2023-04-04T19:17:52.799Z,6.42
2023-04-04T19:19:58.336Z,6.41
2023-04-04T19:22:03.249Z,6.39
2023-04-04T19:24:09.392Z,6.47
2023-04-04T19:26:18.024Z,6.53
2023-04-04T19:28:23.095Z,6.53
2023-04-04T19:30:47.618Z,6.41
2023-04-04T19:32:52.472Z,6.45
2023-04-04T19:34:58.247Z,6.40
2023-04-04T19:37:03.068Z,6.28
2023-04-04T19:39:11.260Z,6.25
2023-04-04T19:41:33.889Z,6.20
2023-04-04T19:43:39.633Z,6.13
2023-04-04T19:45:54.347Z,6.12
2023-04-04T19:48:14.228Z,6.06
2023-04-04T19:50:38.275Z,6.00
2023-04-04T19:52:43.102Z,5.99
2023-04-04T19:54:48.014Z,6.02
2023-04-04T19:56:53.429Z,5.98
2023-04-04T19:58:59.740Z,5.89
2023-04-04T20:01:08.542Z,5.87
2023-04-04T20:03:34.332Z,5.78
2023-04-04T20:05:58.136Z,5.72
2023-04-04T20:08:03.430Z,5.70
2023-04-04T20:10:12.447Z,5.66
2023-04-04T20:12:21.353Z,5.56
2023-04-04T20:14:26.855Z,5.55
2023-04-04T20:16:34.465Z,5.52
2023-04-04T20:18:41.403Z,5.43
2023-04-04T20:27:59.419Z,5.27
2023-04-04T20:31:13.205Z,5.19
2023-04-04T20:36:54.985Z,5.01
2023-04-04T20:39:40.622Z,4.97
2023-04-04T20:42:04.945Z,4.90
2023-04-04T20:44:33.599Z,4.83
2023-04-04T20:47:35.333Z,4.74
2023-04-04T20:50:20.168Z,4.71
2023-04-04T20:53:02.719Z,4.65
2023-04-04T20:55:17.919Z,4.60
2023-04-04T21:04:00.415Z,4.58
2023-04-04T21:06:31.348Z,4.56
2023-04-04T21:09:25.025Z,4.62
2023-04-04T21:11:56.578Z,4.64
2023-04-04T21:14:36.682Z,4.57
2023-04-04T21:26:08.854Z,4.46
2023-04-04T21:34:16.522Z,4.33
2023-04-04T21:36:58.654Z,4.25
2023-04-04T21:39:32.456Z,4.18
2023-04-04T21:41:50.168Z,4.18
2023-04-04T21:44:33.334Z,4.16
2023-04-04T21:47:27.417Z,4.11
2023-04-04T21:49:57.263Z,4.06
2023-04-04T21:52:58.256Z,3.97
2023-04-04T21:55:44.869Z,3.92
2023-04-04T21:58:21.716Z,3.91
2023-04-04T22:01:13.640Z,3.87
2023-04-04T22:06:42.384Z,3.74
2023-04-04T22:09:42.682Z,3.69
2023-04-04T22:12:16.581Z,3.58
2023-04-04T22:15:18.223Z,3.51
2023-04-04T22:17:33.322Z,3.46
2023-04-04T22:22:36.086Z,3.41
2023-04-04T22:30:52.348Z,3.28
2023-04-04T22:36:27.709Z,3.25
2023-04-04T22:38:43.002Z,3.28
2023-04-04T22:40:47.904Z,3.26
2023-04-04T22:42:52.621Z,3.28
2023-04-04T22:44:57.518Z,3.27
2023-04-04T22:47:02.472Z,3.27
2023-04-04T22:49:52.225Z,3.25
2023-04-04T22:52:00.276Z,3.23
2023-04-04T22:54:07.692Z,3.18
2023-04-04T22:56:18.896Z,3.17
2023-04-04T22:58:24.104Z,3.13
2023-04-04T23:00:28.954Z,3.07
2023-04-04T23:02:33.913Z,3.01
2023-04-04T23:04:42.632Z,2.96
2023-04-04T23:06:47.727Z,2.92
2023-04-04T23:08:55.052Z,2.88
2023-04-04T23:10:59.900Z,2.86
2023-04-04T23:13:04.922Z,2.83
2023-04-04T23:15:13.621Z,2.86
2023-04-04T23:17:19.195Z,2.83
2023-04-04T23:19:23.993Z,2.77
2023-04-04T23:21:29.597Z,2.70
2023-04-04T23:23:34.621Z,2.66
2023-04-04T23:25:45.120Z,2.61
2023-04-04T23:27:49.855Z,2.56
2023-04-04T23:30:00.545Z,2.54
2023-04-04T23:32:05.252Z,2.61
2023-04-04T23:34:10.022Z,2.63
2023-04-04T23:36:15.983Z,2.62
2023-04-04T23:38:20.804Z,2.59
2023-04-04T23:40:25.844Z,2.57
2023-04-04T23:45:28.321Z,2.55
2023-04-04T23:47:55.498Z,2.49
2023-04-04T23:52:38.916Z,2.45
2023-04-04T23:54:55.305Z,2.42
2023-04-04T23:57:18.924Z,2.34
2023-04-04T23:59:27.101Z,2.25
